sensor_id;sensor_type;location;lat;lon;timestamp;temperature;humidity
78733;DHT22;68056;52.530;5.454;2023-06-24T00:00:57;18.70;66.10
78733;DHT22;68056;52.530;5.454;2023-06-24T00:03:22;18.70;66.10
78733;DHT22;68056;52.530;5.454;2023-06-24T00:05:48;18.60;66.20
78733;DHT22;68056;52.530;5.454;2023-06-24T00:08:18;18.60;66.20
78733;DHT22;68056;52.530;5.454;2023-06-24T00:10:47;18.60;66.30
78733;DHT22;68056;52.530;5.454;2023-06-24T00:13:13;18.60;66.30
78733;DHT22;68056;52.530;5.454;2023-06-24T00:15:40;18.60;66.30
78733;DHT22;68056;52.530;5.454;2023-06-24T00:18:09;18.50;66.40
78733;DHT22;68056;52.530;5.454;2023-06-24T00:20:35;18.50;66.50
78733;DHT22;68056;52.530;5.454;2023-06-24T00:23:01;18.50;66.40
78733;DHT22;68056;52.530;5.454;2023-06-24T00:25:28;18.50;66.50
78733;DHT22;68056;52.530;5.454;2023-06-24T00:27:53;18.40;66.50
78733;DHT22;68056;52.530;5.454;2023-06-24T00:30:19;18.30;66.70
78733;DHT22;68056;52.530;5.454;2023-06-24T00:32:44;18.30;66.80
78733;DHT22;68056;52.530;5.454;2023-06-24T00:35:10;18.30;66.80
78733;DHT22;68056;52.530;5.454;2023-06-24T00:37:39;18.30;66.80
78733;DHT22;68056;52.530;5.454;2023-06-24T00:40:05;18.20;66.90
78733;DHT22;68056;52.530;5.454;2023-06-24T00:42:32;18.20;66.90
78733;DHT22;68056;52.530;5.454;2023-06-24T00:44:58;18.20;67.00
78733;DHT22;68056;52.530;5.454;2023-06-24T00:47:23;18.20;67.00
78733;DHT22;68056;52.530;5.454;2023-06-24T00:49:49;18.20;67.00
78733;DHT22;68056;52.530;5.454;2023-06-24T00:52:16;18.20;67.00
78733;DHT22;68056;52.530;5.454;2023-06-24T00:54:44;18.20;67.00
78733;DHT22;68056;52.530;5.454;2023-06-24T00:57:10;18.10;67.20
78733;DHT22;68056;52.530;5.454;2023-06-24T00:59:38;18.10;67.10
78733;DHT22;68056;52.530;5.454;2023-06-24T01:02:04;18.10;67.20
78733;DHT22;68056;52.530;5.454;2023-06-24T01:04:31;18.10;67.20
78733;DHT22;68056;52.530;5.454;2023-06-24T01:06:58;18.20;67.10
78733;DHT22;68056;52.530;5.454;2023-06-24T01:09:24;18.10;67.10
78733;DHT22;68056;52.530;5.454;2023-06-24T01:11:51;18.10;67.20
78733;DHT22;68056;52.530;5.454;2023-06-24T01:14:16;18.10;67.20
78733;DHT22;68056;52.530;5.454;2023-06-24T01:17:15;18.00;67.30
78733;DHT22;68056;52.530;5.454;2023-06-24T01:25:33;18.00;67.40
78733;DHT22;68056;52.530;5.454;2023-06-24T01:34:28;18.00;67.50
78733;DHT22;68056;52.530;5.454;2023-06-24T01:37:18;18.00;67.30
78733;DHT22;68056;52.530;5.454;2023-06-24T01:39:50;18.00;67.30
78733;DHT22;68056;52.530;5.454;2023-06-24T01:42:19;18.00;67.10
78733;DHT22;68056;52.530;5.454;2023-06-24T01:44:48;18.00;67.10
78733;DHT22;68056;52.530;5.454;2023-06-24T01:47:22;18.00;67.10
78733;DHT22;68056;52.530;5.454;2023-06-24T01:49:52;17.90;67.10
78733;DHT22;68056;52.530;5.454;2023-06-24T01:52:18;17.90;67.10
78733;DHT22;68056;52.530;5.454;2023-06-24T01:54:47;17.90;67.10
78733;DHT22;68056;52.530;5.454;2023-06-24T01:57:15;17.90;67.20
78733;DHT22;68056;52.530;5.454;2023-06-24T01:59:45;17.90;67.10
78733;DHT22;68056;52.530;5.454;2023-06-24T02:02:12;17.80;67.20
78733;DHT22;68056;52.530;5.454;2023-06-24T02:04:39;17.80;67.20
78733;DHT22;68056;52.530;5.454;2023-06-24T02:07:06;17.80;67.40
78733;DHT22;68056;52.530;5.454;2023-06-24T02:09:32;17.70;67.50
78733;DHT22;68056;52.530;5.454;2023-06-24T02:12:01;17.70;67.50
78733;DHT22;68056;52.530;5.454;2023-06-24T02:14:28;17.60;67.60
78733;DHT22;68056;52.530;5.454;2023-06-24T02:16:55;17.60;67.60
78733;DHT22;68056;52.530;5.454;2023-06-24T02:19:25;17.60;67.50
78733;DHT22;68056;52.530;5.454;2023-06-24T02:21:53;17.60;67.60
78733;DHT22;68056;52.530;5.454;2023-06-24T02:24:19;17.50;67.60
78733;DHT22;68056;52.530;5.454;2023-06-24T02:26:46;17.50;67.60
78733;DHT22;68056;52.530;5.454;2023-06-24T02:29:13;17.50;67.70
78733;DHT22;68056;52.530;5.454;2023-06-24T02:31:39;17.50;67.90
78733;DHT22;68056;52.530;5.454;2023-06-24T02:34:05;17.40;67.90
78733;DHT22;68056;52.530;5.454;2023-06-24T02:36:31;17.40;67.90
78733;DHT22;68056;52.530;5.454;2023-06-24T02:38:56;17.40;67.90
78733;DHT22;68056;52.530;5.454;2023-06-24T02:41:22;17.40;68.00
78733;DHT22;68056;52.530;5.454;2023-06-24T02:43:47;17.30;68.00
78733;DHT22;68056;52.530;5.454;2023-06-24T02:46:15;17.20;68.00
78733;DHT22;68056;52.530;5.454;2023-06-24T02:48:41;17.20;68.10
78733;DHT22;68056;52.530;5.454;2023-06-24T02:51:08;17.20;68.20
78733;DHT22;68056;52.530;5.454;2023-06-24T02:53:37;17.20;68.10
78733;DHT22;68056;52.530;5.454;2023-06-24T02:56:05;17.20;67.90
78733;DHT22;68056;52.530;5.454;2023-06-24T02:58:32;17.20;67.90
78733;DHT22;68056;52.530;5.454;2023-06-24T03:00:59;17.20;68.00
78733;DHT22;68056;52.530;5.454;2023-06-24T03:03:26;17.20;68.00
78733;DHT22;68056;52.530;5.454;2023-06-24T03:05:54;17.20;68.00
78733;DHT22;68056;52.530;5.454;2023-06-24T03:08:21;17.10;68.00
78733;DHT22;68056;52.530;5.454;2023-06-24T03:10:47;17.10;68.10
78733;DHT22;68056;52.530;5.454;2023-06-24T03:13:12;17.00;68.10
78733;DHT22;68056;52.530;5.454;2023-06-24T03:15:38;17.10;68.20
78733;DHT22;68056;52.530;5.454;2023-06-24T03:18:04;17.10;68.20
78733;DHT22;68056;52.530;5.454;2023-06-24T03:20:29;17.10;68.20
78733;DHT22;68056;52.530;5.454;2023-06-24T03:23:04;17.10;68.20
78733;DHT22;68056;52.530;5.454;2023-06-24T03:25:30;17.20;68.00
78733;DHT22;68056;52.530;5.454;2023-06-24T03:27:55;17.20;68.10
78733;DHT22;68056;52.530;5.454;2023-06-24T03:30:21;17.10;68.10
78733;DHT22;68056;52.530;5.454;2023-06-24T03:32:47;17.20;68.10
78733;DHT22;68056;52.530;5.454;2023-06-24T03:35:13;17.20;68.10
78733;DHT22;68056;52.530;5.454;2023-06-24T03:37:39;17.20;68.20
78733;DHT22;68056;52.530;5.454;2023-06-24T03:40:05;17.10;68.20
78733;DHT22;68056;52.530;5.454;2023-06-24T03:42:31;17.10;68.20
78733;DHT22;68056;52.530;5.454;2023-06-24T03:44:56;17.00;68.30
78733;DHT22;68056;52.530;5.454;2023-06-24T03:47:22;17.00;68.30
78733;DHT22;68056;52.530;5.454;2023-06-24T03:49:47;17.00;68.30
78733;DHT22;68056;52.530;5.454;2023-06-24T03:52:13;17.00;68.30
78733;DHT22;68056;52.530;5.454;2023-06-24T03:54:39;17.00;68.40
78733;DHT22;68056;52.530;5.454;2023-06-24T03:57:06;17.00;68.40
78733;DHT22;68056;52.530;5.454;2023-06-24T03:59:33;17.00;68.50
78733;DHT22;68056;52.530;5.454;2023-06-24T04:01:58;17.00;68.50
78733;DHT22;68056;52.530;5.454;2023-06-24T04:04:24;17.00;68.50
78733;DHT22;68056;52.530;5.454;2023-06-24T04:06:49;17.00;68.60
78733;DHT22;68056;52.530;5.454;2023-06-24T04:09:15;17.00;68.60
78733;DHT22;68056;52.530;5.454;2023-06-24T04:11:40;17.00;68.60
78733;DHT22;68056;52.530;5.454;2023-06-24T04:14:06;17.00;68.70
78733;DHT22;68056;52.530;5.454;2023-06-24T04:16:32;17.00;68.70
78733;DHT22;68056;52.530;5.454;2023-06-24T04:18:58;17.00;68.70
78733;DHT22;68056;52.530;5.454;2023-06-24T04:21:24;17.00;68.70
78733;DHT22;68056;52.530;5.454;2023-06-24T04:23:51;17.00;68.70
78733;DHT22;68056;52.530;5.454;2023-06-24T04:26:16;17.00;68.70
78733;DHT22;68056;52.530;5.454;2023-06-24T04:28:42;17.00;68.60
78733;DHT22;68056;52.530;5.454;2023-06-24T04:31:08;17.10;68.50
78733;DHT22;68056;52.530;5.454;2023-06-24T04:33:33;17.00;68.60
78733;DHT22;68056;52.530;5.454;2023-06-24T04:35:59;17.10;68.50
78733;DHT22;68056;52.530;5.454;2023-06-24T04:38:25;17.10;68.50
78733;DHT22;68056;52.530;5.454;2023-06-24T04:40:51;17.10;68.50
78733;DHT22;68056;52.530;5.454;2023-06-24T04:43:16;17.10;68.60
78733;DHT22;68056;52.530;5.454;2023-06-24T04:45:42;17.10;68.50
78733;DHT22;68056;52.530;5.454;2023-06-24T04:48:08;17.10;68.50
78733;DHT22;68056;52.530;5.454;2023-06-24T04:50:33;17.20;68.50
78733;DHT22;68056;52.530;5.454;2023-06-24T04:52:59;17.20;68.60
78733;DHT22;68056;52.530;5.454;2023-06-24T04:55:27;17.20;68.60
78733;DHT22;68056;52.530;5.454;2023-06-24T04:57:52;17.20;68.60
78733;DHT22;68056;52.530;5.454;2023-06-24T05:00:18;17.20;68.70
78733;DHT22;68056;52.530;5.454;2023-06-24T05:02:44;17.30;68.70
78733;DHT22;68056;52.530;5.454;2023-06-24T05:05:10;17.40;68.50
78733;DHT22;68056;52.530;5.454;2023-06-24T05:07:36;17.50;68.40
78733;DHT22;68056;52.530;5.454;2023-06-24T05:10:01;17.50;68.20
78733;DHT22;68056;52.530;5.454;2023-06-24T05:12:27;17.70;68.20
78733;DHT22;68056;52.530;5.454;2023-06-24T05:14:54;17.80;68.20
78733;DHT22;68056;52.530;5.454;2023-06-24T05:17:20;17.80;68.10
78733;DHT22;68056;52.530;5.454;2023-06-24T05:19:46;18.00;68.00
78733;DHT22;68056;52.530;5.454;2023-06-24T05:22:12;18.10;67.90
78733;DHT22;68056;52.530;5.454;2023-06-24T05:24:37;18.20;67.80
78733;DHT22;68056;52.530;5.454;2023-06-24T05:27:04;18.30;67.70
78733;DHT22;68056;52.530;5.454;2023-06-24T05:29:31;18.50;67.60
78733;DHT22;68056;52.530;5.454;2023-06-24T05:31:57;18.70;67.50
78733;DHT22;68056;52.530;5.454;2023-06-24T05:34:23;18.90;67.30
78733;DHT22;68056;52.530;5.454;2023-06-24T05:36:49;19.10;67.00
78733;DHT22;68056;52.530;5.454;2023-06-24T05:39:15;19.30;66.80
78733;DHT22;68056;52.530;5.454;2023-06-24T05:41:40;19.40;66.60
78733;DHT22;68056;52.530;5.454;2023-06-24T05:44:09;19.50;66.50
78733;DHT22;68056;52.530;5.454;2023-06-24T05:46:37;19.50;66.40
78733;DHT22;68056;52.530;5.454;2023-06-24T05:49:03;19.60;66.30
78733;DHT22;68056;52.530;5.454;2023-06-24T05:51:29;19.70;66.20
78733;DHT22;68056;52.530;5.454;2023-06-24T05:53:55;19.80;66.00
78733;DHT22;68056;52.530;5.454;2023-06-24T05:56:21;19.90;66.00
78733;DHT22;68056;52.530;5.454;2023-06-24T05:58:48;20.00;66.00
78733;DHT22;68056;52.530;5.454;2023-06-24T06:01:13;20.00;65.90
78733;DHT22;68056;52.530;5.454;2023-06-24T06:03:39;20.00;65.90
78733;DHT22;68056;52.530;5.454;2023-06-24T06:06:05;20.00;65.90
78733;DHT22;68056;52.530;5.454;2023-06-24T06:08:30;20.10;66.00
78733;DHT22;68056;52.530;5.454;2023-06-24T06:10:56;20.10;66.00
78733;DHT22;68056;52.530;5.454;2023-06-24T06:13:22;20.30;66.00
78733;DHT22;68056;52.530;5.454;2023-06-24T06:15:47;20.30;66.00
78733;DHT22;68056;52.530;5.454;2023-06-24T06:18:13;20.40;65.90
78733;DHT22;68056;52.530;5.454;2023-06-24T06:20:38;20.50;65.80
78733;DHT22;68056;52.530;5.454;2023-06-24T06:23:04;20.60;65.70
78733;DHT22;68056;52.530;5.454;2023-06-24T06:25:30;20.60;65.50
78733;DHT22;68056;52.530;5.454;2023-06-24T06:27:55;20.80;65.40
78733;DHT22;68056;52.530;5.454;2023-06-24T06:30:21;20.90;65.20
78733;DHT22;68056;52.530;5.454;2023-06-24T06:32:47;21.20;64.90
78733;DHT22;68056;52.530;5.454;2023-06-24T06:35:12;21.40;64.40
78733;DHT22;68056;52.530;5.454;2023-06-24T06:37:38;21.60;63.90
78733;DHT22;68056;52.530;5.454;2023-06-24T06:40:04;21.80;63.50
78733;DHT22;68056;52.530;5.454;2023-06-24T06:42:30;21.90;63.30
78733;DHT22;68056;52.530;5.454;2023-06-24T06:44:55;21.90;63.20
78733;DHT22;68056;52.530;5.454;2023-06-24T06:47:23;22.00;63.20
78733;DHT22;68056;52.530;5.454;2023-06-24T06:49:48;22.10;63.00
78733;DHT22;68056;52.530;5.454;2023-06-24T06:52:14;22.20;62.80
78733;DHT22;68056;52.530;5.454;2023-06-24T06:54:39;22.40;62.50
78733;DHT22;68056;52.530;5.454;2023-06-24T06:57:05;22.50;62.20
78733;DHT22;68056;52.530;5.454;2023-06-24T06:59:31;22.70;62.10
78733;DHT22;68056;52.530;5.454;2023-06-24T07:01:57;22.90;61.80
78733;DHT22;68056;52.530;5.454;2023-06-24T07:04:23;23.10;61.60
78733;DHT22;68056;52.530;5.454;2023-06-24T07:06:48;23.40;61.30
78733;DHT22;68056;52.530;5.454;2023-06-24T07:09:14;23.60;61.10
78733;DHT22;68056;52.530;5.454;2023-06-24T07:11:41;23.80;60.80
78733;DHT22;68056;52.530;5.454;2023-06-24T07:14:07;24.00;60.50
78733;DHT22;68056;52.530;5.454;2023-06-24T07:16:32;24.20;60.00
78733;DHT22;68056;52.530;5.454;2023-06-24T07:18:58;24.40;59.80
78733;DHT22;68056;52.530;5.454;2023-06-24T07:21:24;24.50;59.60
78733;DHT22;68056;52.530;5.454;2023-06-24T07:23:49;24.70;59.50
78733;DHT22;68056;52.530;5.454;2023-06-24T07:26:18;24.80;59.30
78733;DHT22;68056;52.530;5.454;2023-06-24T07:28:43;25.00;58.90
78733;DHT22;68056;52.530;5.454;2023-06-24T07:31:09;25.10;58.40
78733;DHT22;68056;52.530;5.454;2023-06-24T07:33:35;25.20;58.30
78733;DHT22;68056;52.530;5.454;2023-06-24T07:36:01;25.30;58.20
78733;DHT22;68056;52.530;5.454;2023-06-24T07:38:28;25.40;58.00
78733;DHT22;68056;52.530;5.454;2023-06-24T07:40:54;25.60;57.80
78733;DHT22;68056;52.530;5.454;2023-06-24T07:43:20;25.80;57.60
78733;DHT22;68056;52.530;5.454;2023-06-24T07:45:45;26.00;57.40
78733;DHT22;68056;52.530;5.454;2023-06-24T07:48:11;26.20;57.10
78733;DHT22;68056;52.530;5.454;2023-06-24T07:50:38;26.40;56.90
78733;DHT22;68056;52.530;5.454;2023-06-24T07:53:05;26.50;56.80
78733;DHT22;68056;52.530;5.454;2023-06-24T07:55:31;26.80;56.40
78733;DHT22;68056;52.530;5.454;2023-06-24T07:57:56;27.00;56.20
78733;DHT22;68056;52.530;5.454;2023-06-24T08:00:23;27.20;56.10
78733;DHT22;68056;52.530;5.454;2023-06-24T08:02:49;27.30;55.70
78733;DHT22;68056;52.530;5.454;2023-06-24T08:05:15;27.40;55.70
78733;DHT22;68056;52.530;5.454;2023-06-24T08:07:44;27.50;55.50
78733;DHT22;68056;52.530;5.454;2023-06-24T08:10:09;27.70;55.30
78733;DHT22;68056;52.530;5.454;2023-06-24T08:12:35;27.80;55.00
78733;DHT22;68056;52.530;5.454;2023-06-24T08:15:01;27.90;55.00
78733;DHT22;68056;52.530;5.454;2023-06-24T08:17:26;28.00;55.00
78733;DHT22;68056;52.530;5.454;2023-06-24T08:19:52;28.10;54.80
78733;DHT22;68056;52.530;5.454;2023-06-24T08:22:17;28.20;54.60
78733;DHT22;68056;52.530;5.454;2023-06-24T08:24:43;28.20;54.50
78733;DHT22;68056;52.530;5.454;2023-06-24T08:27:09;28.30;54.20
78733;DHT22;68056;52.530;5.454;2023-06-24T08:29:34;28.30;53.70
78733;DHT22;68056;52.530;5.454;2023-06-24T08:32:00;28.30;53.40
78733;DHT22;68056;52.530;5.454;2023-06-24T08:34:25;28.30;53.50
78733;DHT22;68056;52.530;5.454;2023-06-24T08:36:52;28.20;53.50
78733;DHT22;68056;52.530;5.454;2023-06-24T08:39:17;28.30;53.40
78733;DHT22;68056;52.530;5.454;2023-06-24T08:41:43;28.40;53.50
78733;DHT22;68056;52.530;5.454;2023-06-24T08:44:08;28.50;53.70
78733;DHT22;68056;52.530;5.454;2023-06-24T08:46:34;28.50;54.00
78733;DHT22;68056;52.530;5.454;2023-06-24T08:49:21;28.50;54.30
78733;DHT22;68056;52.530;5.454;2023-06-24T08:51:59;28.60;54.30
78733;DHT22;68056;52.530;5.454;2023-06-24T08:54:25;28.80;54.10
78733;DHT22;68056;52.530;5.454;2023-06-24T08:56:52;28.90;54.10
78733;DHT22;68056;52.530;5.454;2023-06-24T08:59:18;28.80;54.10
78733;DHT22;68056;52.530;5.454;2023-06-24T09:01:47;28.70;54.00
78733;DHT22;68056;52.530;5.454;2023-06-24T09:04:12;28.80;54.00
78733;DHT22;68056;52.530;5.454;2023-06-24T09:06:38;28.90;54.00
78733;DHT22;68056;52.530;5.454;2023-06-24T09:09:04;29.00;54.00
78733;DHT22;68056;52.530;5.454;2023-06-24T09:11:30;29.10;54.10
78733;DHT22;68056;52.530;5.454;2023-06-24T09:13:57;29.20;53.80
78733;DHT22;68056;52.530;5.454;2023-06-24T09:16:23;29.20;54.00
78733;DHT22;68056;52.530;5.454;2023-06-24T09:18:50;29.30;53.80
78733;DHT22;68056;52.530;5.454;2023-06-24T09:21:25;29.30;53.40
78733;DHT22;68056;52.530;5.454;2023-06-24T09:23:53;29.30;53.60
78733;DHT22;68056;52.530;5.454;2023-06-24T09:26:19;29.20;53.40
78733;DHT22;68056;52.530;5.454;2023-06-24T09:28:48;29.20;53.60
78733;DHT22;68056;52.530;5.454;2023-06-24T09:31:14;29.40;53.50
78733;DHT22;68056;52.530;5.454;2023-06-24T09:33:40;29.50;53.50
78733;DHT22;68056;52.530;5.454;2023-06-24T09:36:06;29.80;53.10
78733;DHT22;68056;52.530;5.454;2023-06-24T09:38:35;29.90;53.00
78733;DHT22;68056;52.530;5.454;2023-06-24T09:41:03;30.00;52.90
78733;DHT22;68056;52.530;5.454;2023-06-24T09:43:30;30.00;52.90
78733;DHT22;68056;52.530;5.454;2023-06-24T09:45:57;30.10;52.70
78733;DHT22;68056;52.530;5.454;2023-06-24T09:48:24;30.20;52.60
78733;DHT22;68056;52.530;5.454;2023-06-24T09:50:50;30.30;52.60
78733;DHT22;68056;52.530;5.454;2023-06-24T09:53:16;30.30;52.40
78733;DHT22;68056;52.530;5.454;2023-06-24T09:55:42;30.50;52.40
78733;DHT22;68056;52.530;5.454;2023-06-24T09:58:11;30.60;52.20
78733;DHT22;68056;52.530;5.454;2023-06-24T10:00:37;30.50;52.20
78733;DHT22;68056;52.530;5.454;2023-06-24T10:03:03;30.60;52.20
78733;DHT22;68056;52.530;5.454;2023-06-24T10:05:29;30.70;51.90
78733;DHT22;68056;52.530;5.454;2023-06-24T10:07:55;30.80;51.90
78733;DHT22;68056;52.530;5.454;2023-06-24T10:10:20;31.00;51.80
78733;DHT22;68056;52.530;5.454;2023-06-24T10:12:46;31.00;51.30
78733;DHT22;68056;52.530;5.454;2023-06-24T10:15:11;31.00;51.10
78733;DHT22;68056;52.530;5.454;2023-06-24T10:17:37;30.90;51.30
78733;DHT22;68056;52.530;5.454;2023-06-24T10:20:04;31.00;51.60
78733;DHT22;68056;52.530;5.454;2023-06-24T10:22:31;31.20;51.50
78733;DHT22;68056;52.530;5.454;2023-06-24T10:25:00;31.40;51.10
78733;DHT22;68056;52.530;5.454;2023-06-24T10:27:26;31.50;51.10
78733;DHT22;68056;52.530;5.454;2023-06-24T10:29:54;31.60;50.70
78733;DHT22;68056;52.530;5.454;2023-06-24T10:32:22;31.60;50.50
78733;DHT22;68056;52.530;5.454;2023-06-24T10:34:56;31.60;49.90
78733;DHT22;68056;52.530;5.454;2023-06-24T10:37:26;31.40;49.80
78733;DHT22;68056;52.530;5.454;2023-06-24T10:39:59;31.40;49.60
78733;DHT22;68056;52.530;5.454;2023-06-24T10:42:38;31.50;49.70
78733;DHT22;68056;52.530;5.454;2023-06-24T10:47:37;31.80;49.20
78733;DHT22;68056;52.530;5.454;2023-06-24T10:50:04;31.80;48.90
78733;DHT22;68056;52.530;5.454;2023-06-24T10:52:30;31.90;48.90
78733;DHT22;68056;52.530;5.454;2023-06-24T10:54:57;32.10;48.60
78733;DHT22;68056;52.530;5.454;2023-06-24T10:57:24;32.30;48.40
78733;DHT22;68056;52.530;5.454;2023-06-24T10:59:51;32.40;48.40
78733;DHT22;68056;52.530;5.454;2023-06-24T11:02:19;32.50;48.50
78733;DHT22;68056;52.530;5.454;2023-06-24T11:04:52;32.60;48.50
78733;DHT22;68056;52.530;5.454;2023-06-24T11:07:22;32.80;48.20
78733;DHT22;68056;52.530;5.454;2023-06-24T11:09:53;32.80;48.30
78733;DHT22;68056;52.530;5.454;2023-06-24T11:12:23;33.00;48.10
78733;DHT22;68056;52.530;5.454;2023-06-24T11:14:48;33.00;47.70
78733;DHT22;68056;52.530;5.454;2023-06-24T11:17:14;32.80;47.70
78733;DHT22;68056;52.530;5.454;2023-06-24T11:19:40;32.80;47.50
78733;DHT22;68056;52.530;5.454;2023-06-24T11:22:07;32.60;47.50
78733;DHT22;68056;52.530;5.454;2023-06-24T11:24:34;32.50;47.60
78733;DHT22;68056;52.530;5.454;2023-06-24T11:26:59;32.50;47.80
78733;DHT22;68056;52.530;5.454;2023-06-24T11:29:29;32.80;47.90
78733;DHT22;68056;52.530;5.454;2023-06-24T11:31:55;33.00;47.60
78733;DHT22;68056;52.530;5.454;2023-06-24T11:34:21;33.00;47.30
78733;DHT22;68056;52.530;5.454;2023-06-24T11:36:48;32.80;47.50
78733;DHT22;68056;52.530;5.454;2023-06-24T11:39:24;32.80;47.50
78733;DHT22;68056;52.530;5.454;2023-06-24T11:41:50;32.90;47.60
78733;DHT22;68056;52.530;5.454;2023-06-24T11:44:20;33.00;47.40
78733;DHT22;68056;52.530;5.454;2023-06-24T11:46:46;33.10;47.60
78733;DHT22;68056;52.530;5.454;2023-06-24T11:49:11;33.10;47.70
78733;DHT22;68056;52.530;5.454;2023-06-24T11:51:46;33.20;47.50
78733;DHT22;68056;52.530;5.454;2023-06-24T11:54:14;33.10;46.90
78733;DHT22;68056;52.530;5.454;2023-06-24T11:56:42;33.00;47.20
78733;DHT22;68056;52.530;5.454;2023-06-24T11:59:16;33.10;47.20
78733;DHT22;68056;52.530;5.454;2023-06-24T12:01:55;33.30;46.90
78733;DHT22;68056;52.530;5.454;2023-06-24T12:04:26;33.30;46.90
78733;DHT22;68056;52.530;5.454;2023-06-24T12:06:52;33.40;46.60
78733;DHT22;68056;52.530;5.454;2023-06-24T12:09:18;33.40;46.70
78733;DHT22;68056;52.530;5.454;2023-06-24T12:11:44;33.50;46.80
78733;DHT22;68056;52.530;5.454;2023-06-24T12:14:10;33.60;46.60
78733;DHT22;68056;52.530;5.454;2023-06-24T12:16:36;33.70;46.60
78733;DHT22;68056;52.530;5.454;2023-06-24T12:19:02;33.80;46.40
78733;DHT22;68056;52.530;5.454;2023-06-24T12:21:27;33.80;45.70
78733;DHT22;68056;52.530;5.454;2023-06-24T12:23:53;33.60;45.80
78733;DHT22;68056;52.530;5.454;2023-06-24T12:26:19;33.50;45.50
78733;DHT22;68056;52.530;5.454;2023-06-24T12:28:44;33.30;45.40
78733;DHT22;68056;52.530;5.454;2023-06-24T12:31:11;33.10;45.80
78733;DHT22;68056;52.530;5.454;2023-06-24T12:33:36;33.00;46.40
78733;DHT22;68056;52.530;5.454;2023-06-24T12:36:02;33.00;46.50
78733;DHT22;68056;52.530;5.454;2023-06-24T12:38:28;33.10;46.60
78733;DHT22;68056;52.530;5.454;2023-06-24T12:40:53;33.20;46.60
78733;DHT22;68056;52.530;5.454;2023-06-24T12:43:19;33.30;46.90
78733;DHT22;68056;52.530;5.454;2023-06-24T12:45:44;33.30;46.80
78733;DHT22;68056;52.530;5.454;2023-06-24T12:48:11;33.40;47.10
78733;DHT22;68056;52.530;5.454;2023-06-24T12:50:36;33.60;46.90
78733;DHT22;68056;52.530;5.454;2023-06-24T12:53:02;33.70;47.10
78733;DHT22;68056;52.530;5.454;2023-06-24T12:55:29;33.90;46.60
78733;DHT22;68056;52.530;5.454;2023-06-24T12:57:55;34.00;46.50
78733;DHT22;68056;52.530;5.454;2023-06-24T13:00:22;34.20;46.40
78733;DHT22;68056;52.530;5.454;2023-06-24T13:02:48;34.20;46.40
78733;DHT22;68056;52.530;5.454;2023-06-24T13:05:14;34.20;46.40
78733;DHT22;68056;52.530;5.454;2023-06-24T13:07:40;34.20;46.40
78733;DHT22;68056;52.530;5.454;2023-06-24T13:10:06;34.00;46.30
78733;DHT22;68056;52.530;5.454;2023-06-24T13:12:35;34.10;46.20
78733;DHT22;68056;52.530;5.454;2023-06-24T13:15:01;34.20;46.10
78733;DHT22;68056;52.530;5.454;2023-06-24T13:17:29;34.20;46.10
78733;DHT22;68056;52.530;5.454;2023-06-24T13:19:55;34.00;46.50
78733;DHT22;68056;52.530;5.454;2023-06-24T13:22:20;34.00;46.60
78733;DHT22;68056;52.530;5.454;2023-06-24T13:24:46;34.00;46.50
78733;DHT22;68056;52.530;5.454;2023-06-24T13:27:11;33.90;46.90
78733;DHT22;68056;52.530;5.454;2023-06-24T13:29:37;33.90;46.90
78733;DHT22;68056;52.530;5.454;2023-06-24T13:32:03;34.00;47.00
78733;DHT22;68056;52.530;5.454;2023-06-24T13:34:28;34.00;47.00
78733;DHT22;68056;52.530;5.454;2023-06-24T13:36:54;34.00;46.80
78733;DHT22;68056;52.530;5.454;2023-06-24T13:39:20;33.90;46.60
78733;DHT22;68056;52.530;5.454;2023-06-24T13:41:49;33.90;46.70
78733;DHT22;68056;52.530;5.454;2023-06-24T13:44:15;34.00;46.80
78733;DHT22;68056;52.530;5.454;2023-06-24T13:46:41;33.90;46.80
78733;DHT22;68056;52.530;5.454;2023-06-24T13:49:07;33.80;46.90
78733;DHT22;68056;52.530;5.454;2023-06-24T13:51:33;33.60;47.10
78733;DHT22;68056;52.530;5.454;2023-06-24T13:53:58;33.60;47.20
78733;DHT22;68056;52.530;5.454;2023-06-24T13:56:24;33.60;47.20
78733;DHT22;68056;52.530;5.454;2023-06-24T13:58:53;33.80;47.10
78733;DHT22;68056;52.530;5.454;2023-06-24T14:01:19;33.80;47.30
78733;DHT22;68056;52.530;5.454;2023-06-24T14:03:45;33.80;47.30
78733;DHT22;68056;52.530;5.454;2023-06-24T14:06:13;33.40;47.10
78733;DHT22;68056;52.530;5.454;2023-06-24T14:08:40;33.00;47.50
78733;DHT22;68056;52.530;5.454;2023-06-24T14:11:06;32.50;48.10
78733;DHT22;68056;52.530;5.454;2023-06-24T14:13:32;32.20;48.60
78733;DHT22;68056;52.530;5.454;2023-06-24T14:15:57;32.00;48.90
78733;DHT22;68056;52.530;5.454;2023-06-24T14:18:23;31.90;49.10
78733;DHT22;68056;52.530;5.454;2023-06-24T14:20:51;31.70;49.20
78733;DHT22;68056;52.530;5.454;2023-06-24T14:23:17;31.60;49.60
78733;DHT22;68056;52.530;5.454;2023-06-24T14:25:43;31.50;49.60
78733;DHT22;68056;52.530;5.454;2023-06-24T14:28:09;31.40;49.60
78733;DHT22;68056;52.530;5.454;2023-06-24T14:30:34;31.30;49.70
78733;DHT22;68056;52.530;5.454;2023-06-24T14:33:09;31.10;49.80
78733;DHT22;68056;52.530;5.454;2023-06-24T14:35:34;31.00;49.90
78733;DHT22;68056;52.530;5.454;2023-06-24T14:38:00;30.90;50.00
78733;DHT22;68056;52.530;5.454;2023-06-24T14:40:26;30.90;50.20
78733;DHT22;68056;52.530;5.454;2023-06-24T14:42:52;30.90;50.30
78733;DHT22;68056;52.530;5.454;2023-06-24T14:45:17;30.90;50.20
78733;DHT22;68056;52.530;5.454;2023-06-24T14:47:43;30.80;50.10
78733;DHT22;68056;52.530;5.454;2023-06-24T14:50:10;30.80;50.20
78733;DHT22;68056;52.530;5.454;2023-06-24T14:52:35;31.00;50.30
78733;DHT22;68056;52.530;5.454;2023-06-24T14:55:01;31.20;49.80
78733;DHT22;68056;52.530;5.454;2023-06-24T14:57:27;31.20;49.60
78733;DHT22;68056;52.530;5.454;2023-06-24T14:59:53;31.00;49.70
78733;DHT22;68056;52.530;5.454;2023-06-24T15:02:25;30.80;49.80
78733;DHT22;68056;52.530;5.454;2023-06-24T15:04:51;30.50;50.00
78733;DHT22;68056;52.530;5.454;2023-06-24T15:07:17;30.30;50.10
78733;DHT22;68056;52.530;5.454;2023-06-24T15:09:42;30.00;50.70
78733;DHT22;68056;52.530;5.454;2023-06-24T15:12:08;29.90;51.30
78733;DHT22;68056;52.530;5.454;2023-06-24T15:14:34;29.80;51.60
78733;DHT22;68056;52.530;5.454;2023-06-24T15:17:00;29.70;51.80
78733;DHT22;68056;52.530;5.454;2023-06-24T15:19:25;29.50;52.00
78733;DHT22;68056;52.530;5.454;2023-06-24T15:21:51;29.50;52.30
78733;DHT22;68056;52.530;5.454;2023-06-24T15:24:17;29.60;52.60
78733;DHT22;68056;52.530;5.454;2023-06-24T15:26:42;29.70;52.60
78733;DHT22;68056;52.530;5.454;2023-06-24T15:29:08;29.90;52.50
78733;DHT22;68056;52.530;5.454;2023-06-24T15:31:33;30.10;52.20
78733;DHT22;68056;52.530;5.454;2023-06-24T15:33:59;30.20;52.00
78733;DHT22;68056;52.530;5.454;2023-06-24T15:36:25;30.30;51.90
78733;DHT22;68056;52.530;5.454;2023-06-24T15:38:53;30.20;51.80
78733;DHT22;68056;52.530;5.454;2023-06-24T15:41:18;30.20;51.80